createdAt,value
2018-01-30T00:01:46.340Z,1.70
2018-01-30T00:04:13.861Z,1.77
2018-01-30T00:06:41.377Z,2.40
2018-01-30T00:09:08.925Z,2.67
2018-01-30T00:11:36.453Z,2.80
2018-01-30T00:14:04.039Z,2.80
2018-01-30T00:16:31.678Z,2.97
2018-01-30T00:18:59.213Z,2.23
2018-01-30T00:21:26.768Z,1.93
2018-01-30T00:23:54.352Z,3.13
2018-01-30T00:26:21.877Z,2.50
2018-01-30T00:28:49.388Z,3.03
2018-01-30T00:31:16.920Z,1.87
2018-01-30T00:33:44.491Z,2.73
2018-01-30T00:36:12.015Z,2.77
2018-01-30T00:38:39.542Z,2.87
2018-01-30T00:41:07.192Z,1.97
2018-01-30T00:43:34.712Z,2.07
2018-01-30T00:46:02.237Z,2.30
2018-01-30T00:48:29.746Z,3.00
2018-01-30T00:50:57.264Z,3.03
2018-01-30T00:53:24.774Z,2.80
2018-01-30T00:55:52.293Z,2.47
2018-01-30T00:58:19.839Z,2.73
2018-01-30T01:00:47.337Z,2.40
2018-01-30T01:03:14.852Z,3.17
2018-01-30T01:05:42.408Z,4.60
2018-01-30T01:08:09.914Z,2.97
2018-01-30T01:10:37.446Z,2.90
2018-01-30T01:13:05.129Z,2.40
2018-01-30T01:15:32.654Z,1.93
2018-01-30T01:18:00.253Z,2.37
2018-01-30T01:20:27.757Z,2.63
2018-01-30T01:22:55.273Z,2.30
2018-01-30T01:25:22.767Z,2.47
2018-01-30T01:27:50.285Z,2.90
2018-01-30T01:30:17.825Z,3.27
2018-01-30T01:32:45.406Z,2.70
2018-01-30T01:35:13.362Z,3.73
2018-01-30T01:37:40.908Z,2.80
2018-01-30T01:40:08.417Z,2.53
2018-01-30T01:42:35.963Z,2.03
2018-01-30T01:45:03.505Z,2.60
2018-01-30T01:47:31.009Z,2.60
2018-01-30T01:49:58.501Z,3.30
2018-01-30T01:52:26.025Z,2.80
2018-01-30T01:54:53.540Z,2.03
2018-01-30T01:57:21.059Z,2.40
2018-01-30T01:59:48.783Z,2.47
2018-01-30T02:02:16.285Z,2.83
2018-01-30T02:04:43.812Z,3.03
2018-01-30T02:07:11.342Z,3.00
2018-01-30T02:09:38.865Z,1.93
2018-01-30T02:12:06.492Z,5.83
2018-01-30T02:14:33.988Z,3.00
2018-01-30T02:17:01.513Z,3.77
2018-01-30T02:19:29.234Z,3.00
2018-01-30T02:21:56.728Z,3.23
2018-01-30T02:24:24.220Z,3.13
2018-01-30T02:26:51.760Z,2.57
2018-01-30T02:29:19.260Z,5.30
2018-01-30T02:31:46.776Z,3.07
2018-01-30T02:34:14.324Z,3.77
2018-01-30T02:36:41.859Z,3.17
2018-01-30T02:39:09.361Z,2.37
2018-01-30T02:41:36.902Z,3.10
2018-01-30T02:44:04.413Z,2.80
2018-01-30T02:46:31.912Z,3.57
2018-01-30T02:48:59.437Z,2.40
2018-01-30T02:51:26.945Z,2.17
2018-01-30T02:53:54.461Z,2.00
2018-01-30T02:56:22.012Z,2.70
2018-01-30T02:58:49.564Z,2.70
2018-01-30T03:01:17.060Z,2.63
2018-01-30T03:03:44.568Z,2.10
2018-01-30T03:06:12.093Z,3.40
2018-01-30T03:08:39.597Z,2.13
2018-01-30T03:11:07.293Z,2.17
2018-01-30T03:13:34.791Z,2.60
2018-01-30T03:16:02.312Z,2.50
2018-01-30T03:18:29.833Z,2.80
2018-01-30T03:20:57.330Z,2.73
2018-01-30T03:23:24.888Z,2.73
2018-01-30T03:25:52.421Z,3.40
2018-01-30T03:28:19.929Z,3.03
2018-01-30T03:30:47.553Z,2.60
2018-01-30T03:33:15.073Z,3.70
2018-01-30T03:35:42.567Z,3.90
2018-01-30T03:38:10.061Z,2.70
2018-01-30T03:40:37.784Z,3.27
2018-01-30T03:43:05.278Z,2.50
2018-01-30T03:45:32.813Z,2.63
2018-01-30T03:48:00.324Z,2.93
2018-01-30T03:50:27.928Z,2.53
2018-01-30T03:52:55.456Z,4.60
2018-01-30T03:55:22.981Z,2.53
2018-01-30T03:57:50.482Z,3.20
2018-01-30T04:00:18.062Z,2.33
2018-01-30T04:02:45.579Z,2.13
2018-01-30T04:05:13.076Z,2.23
2018-01-30T04:07:40.689Z,3.13
2018-01-30T04:10:08.277Z,2.93
2018-01-30T04:12:35.805Z,2.67
2018-01-30T04:15:03.429Z,3.33
2018-01-30T04:17:31.171Z,2.63
2018-01-30T04:19:58.664Z,3.10
2018-01-30T04:22:26.203Z,2.13
2018-01-30T04:24:53.736Z,2.70
2018-01-30T04:27:21.233Z,2.40
2018-01-30T04:29:48.776Z,3.40
2018-01-30T04:32:16.292Z,3.63
2018-01-30T04:34:43.880Z,2.83
2018-01-30T04:37:11.436Z,2.57
2018-01-30T04:39:38.941Z,2.73
2018-01-30T04:42:06.488Z,2.53
2018-01-30T04:44:34.128Z,2.63
2018-01-30T04:47:01.693Z,2.37
2018-01-30T04:49:29.189Z,2.47
2018-01-30T04:51:56.714Z,2.40
2018-01-30T04:54:24.225Z,2.30
2018-01-30T04:56:51.758Z,2.20
2018-01-30T04:59:19.253Z,3.13
2018-01-30T05:01:46.772Z,5.23
2018-01-30T05:04:14.405Z,2.23
2018-01-30T05:06:41.906Z,2.10
2018-01-30T05:09:09.399Z,3.10
2018-01-30T05:11:36.945Z,3.03
2018-01-30T05:14:04.468Z,4.80
2018-01-30T05:16:32.068Z,3.07
2018-01-30T05:18:59.611Z,2.40
2018-01-30T05:21:27.148Z,3.00
2018-01-30T05:23:54.763Z,3.50
2018-01-30T05:26:22.280Z,2.60
2018-01-30T05:28:49.824Z,2.73
2018-01-30T05:31:17.350Z,2.50
2018-01-30T05:33:44.908Z,2.77
2018-01-30T05:36:12.473Z,2.80
2018-01-30T05:38:39.989Z,2.73
2018-01-30T05:41:08.489Z,3.57
2018-01-30T05:43:36.004Z,2.83
2018-01-30T05:46:03.617Z,3.20
2018-01-30T05:48:31.153Z,3.00
2018-01-30T05:50:58.828Z,2.83
2018-01-30T05:53:26.325Z,2.70
2018-01-30T05:55:53.848Z,2.20
2018-01-30T05:58:21.412Z,3.40
2018-01-30T06:00:48.921Z,2.13
2018-01-30T06:03:16.421Z,3.30
2018-01-30T06:05:43.937Z,2.80
2018-01-30T06:08:11.438Z,2.90
2018-01-30T06:10:38.999Z,3.50
2018-01-30T06:13:06.507Z,5.23
2018-01-30T06:15:33.996Z,2.47
2018-01-30T06:18:01.545Z,2.57
2018-01-30T06:20:29.094Z,3.30
2018-01-30T06:22:56.590Z,3.30
2018-01-30T06:25:24.080Z,2.53
2018-01-30T06:27:51.669Z,3.53
2018-01-30T06:30:19.265Z,2.37
2018-01-30T06:32:46.771Z,3.27
2018-01-30T06:35:14.408Z,4.80
2018-01-30T06:37:41.965Z,3.00
2018-01-30T06:40:09.464Z,5.23
2018-01-30T06:42:37.000Z,3.43
2018-01-30T06:45:04.534Z,5.30
2018-01-30T06:47:32.055Z,2.70
2018-01-30T06:49:59.577Z,2.43
2018-01-30T06:52:27.101Z,2.57
2018-01-30T06:54:54.629Z,3.30
2018-01-30T06:57:22.149Z,2.93
2018-01-30T06:59:49.645Z,4.03
2018-01-30T07:02:17.169Z,3.37
2018-01-30T07:04:44.702Z,2.70
2018-01-30T07:07:12.227Z,2.50
2018-01-30T07:09:39.816Z,2.90
2018-01-30T07:12:07.337Z,3.40
2018-01-30T07:14:34.864Z,2.57
2018-01-30T07:17:02.493Z,2.70
2018-01-30T07:19:29.997Z,2.13
2018-01-30T07:21:57.523Z,3.87
2018-01-30T07:24:25.289Z,3.07
2018-01-30T07:26:52.789Z,2.87
2018-01-30T07:29:20.393Z,4.73
2018-01-30T07:31:47.948Z,3.50
2018-01-30T07:34:15.508Z,4.07
2018-01-30T07:36:43.033Z,2.90
2018-01-30T07:39:10.650Z,3.30
2018-01-30T07:41:38.209Z,3.73
2018-01-30T07:44:05.747Z,2.30
2018-01-30T07:46:33.319Z,3.50
2018-01-30T07:49:00.838Z,3.17
2018-01-30T07:51:28.424Z,3.13
2018-01-30T07:53:55.950Z,4.73
2018-01-30T07:56:23.460Z,4.80
2018-01-30T07:58:51.016Z,3.67
2018-01-30T08:01:18.545Z,3.33
2018-01-30T08:03:46.049Z,3.03
2018-01-30T08:06:13.792Z,3.40
2018-01-30T08:08:41.309Z,3.70
2018-01-30T08:11:08.821Z,3.80
2018-01-30T08:13:36.373Z,3.80
2018-01-30T08:16:03.905Z,3.63
2018-01-30T08:18:31.429Z,3.70
2018-01-30T08:20:58.962Z,2.53
2018-01-30T08:23:26.496Z,3.03
2018-01-30T08:25:54.005Z,3.23
2018-01-30T08:28:21.609Z,3.60
2018-01-30T08:30:49.128Z,3.17
2018-01-30T08:33:16.660Z,3.40
2018-01-30T08:35:44.183Z,2.90
2018-01-30T08:38:11.700Z,3.73
2018-01-30T08:40:39.239Z,4.87
2018-01-30T08:43:06.764Z,3.20
2018-01-30T08:45:34.304Z,3.97
2018-01-30T08:48:01.853Z,2.97
2018-01-30T08:50:29.390Z,2.87
2018-01-30T08:52:56.918Z,4.60
2018-01-30T08:55:24.470Z,3.07
2018-01-30T08:57:51.996Z,3.87
2018-01-30T09:00:19.594Z,4.10
2018-01-30T09:02:47.139Z,3.50
2018-01-30T09:05:14.665Z,4.47
2018-01-30T09:07:42.204Z,3.73
2018-01-30T09:10:09.749Z,3.17
2018-01-30T09:12:37.248Z,3.87
2018-01-30T09:15:04.772Z,4.40
2018-01-30T09:17:32.391Z,3.10
2018-01-30T09:19:59.889Z,3.33
2018-01-30T09:22:27.478Z,4.83
2018-01-30T09:24:55.033Z,4.90
2018-01-30T09:27:22.538Z,4.07
2018-01-30T09:29:50.038Z,4.33
2018-01-30T09:32:17.550Z,5.50
2018-01-30T09:34:45.128Z,4.87
2018-01-30T09:37:12.703Z,4.93
2018-01-30T09:39:40.199Z,3.07
2018-01-30T09:42:07.716Z,3.27
2018-01-30T09:44:35.314Z,4.50
2018-01-30T09:47:02.813Z,4.10
2018-01-30T09:49:31.236Z,5.00
2018-01-30T09:51:58.841Z,5.70
2018-01-30T09:54:26.332Z,2.97
2018-01-30T09:56:53.881Z,7.17
2018-01-30T09:59:21.433Z,3.27
2018-01-30T10:01:48.933Z,4.13
2018-01-30T10:04:16.495Z,3.13
2018-01-30T10:06:44.025Z,5.80
2018-01-30T10:09:11.881Z,4.10
2018-01-30T10:11:39.417Z,5.40
2018-01-30T10:14:06.969Z,5.67
2018-01-30T10:16:34.772Z,4.80
2018-01-30T10:19:02.297Z,4.23
2018-01-30T10:21:29.853Z,4.17
2018-01-30T10:23:57.381Z,4.90
2018-01-30T10:26:24.901Z,3.30
2018-01-30T10:28:52.433Z,3.10
2018-01-30T10:31:19.954Z,5.07
2018-01-30T10:33:47.470Z,3.97
2018-01-30T10:36:14.982Z,4.07
2018-01-30T10:38:42.543Z,3.70
2018-01-30T10:41:10.214Z,4.03
2018-01-30T10:43:37.722Z,4.00
2018-01-30T10:46:05.297Z,3.20
2018-01-30T10:48:32.828Z,3.77
2018-01-30T10:51:00.358Z,3.87
2018-01-30T10:53:27.901Z,5.10
2018-01-30T10:55:55.442Z,5.90
2018-01-30T10:58:22.941Z,6.10
2018-01-30T11:00:51.151Z,4.40
2018-01-30T11:03:18.744Z,4.57
2018-01-30T11:05:46.396Z,4.00
2018-01-30T11:08:13.925Z,4.00
2018-01-30T11:10:41.460Z,3.50
2018-01-30T11:13:08.965Z,6.63
2018-01-30T11:15:36.811Z,4.10
2018-01-30T11:18:04.317Z,4.27
2018-01-30T11:20:31.816Z,2.97
2018-01-30T11:22:59.378Z,4.60
2018-01-30T11:25:26.901Z,3.90
2018-01-30T11:27:54.430Z,4.83
2018-01-30T11:30:21.988Z,4.93
2018-01-30T11:32:49.512Z,4.43
2018-01-30T11:35:17.015Z,2.97
2018-01-30T11:37:44.593Z,5.60
2018-01-30T11:40:12.101Z,4.27
2018-01-30T11:42:39.621Z,3.40
2018-01-30T11:45:07.206Z,3.87
2018-01-30T11:47:34.740Z,4.60
2018-01-30T11:50:02.357Z,3.23
2018-01-30T11:52:29.879Z,3.60
2018-01-30T11:54:57.405Z,3.70
2018-01-30T11:57:24.914Z,3.60
2018-01-30T11:59:52.497Z,3.97
2018-01-30T12:02:20.004Z,4.07
2018-01-30T12:04:47.497Z,4.10
2018-01-30T12:07:15.100Z,2.90
2018-01-30T12:09:42.621Z,3.60
2018-01-30T12:12:10.229Z,4.00
2018-01-30T12:14:37.792Z,3.87
2018-01-30T12:17:05.455Z,4.60
2018-01-30T12:19:32.988Z,4.80
2018-01-30T12:22:00.529Z,5.17
2018-01-30T12:24:28.059Z,4.40
2018-01-30T12:26:55.690Z,3.53
2018-01-30T12:29:23.212Z,3.60
2018-01-30T12:31:51.104Z,5.00
2018-01-30T12:34:18.653Z,3.27
2018-01-30T12:36:46.188Z,3.33
2018-01-30T12:39:13.816Z,3.77
2018-01-30T12:41:41.401Z,2.73
2018-01-30T12:44:08.912Z,3.23
2018-01-30T12:46:36.443Z,3.47
2018-01-30T12:49:04.031Z,3.07
2018-01-30T12:51:31.537Z,3.70
2018-01-30T12:53:59.065Z,2.43
2018-01-30T12:56:26.832Z,2.90
2018-01-30T12:58:54.332Z,4.20
2018-01-30T13:01:21.854Z,2.60
2018-01-30T13:03:49.384Z,4.30
2018-01-30T13:06:16.905Z,3.10
2018-01-30T13:08:44.448Z,2.53
2018-01-30T13:11:11.975Z,3.57
2018-01-30T13:13:39.473Z,3.77
2018-01-30T13:16:06.984Z,3.40
2018-01-30T13:18:34.485Z,3.93
2018-01-30T13:21:02.662Z,3.23
2018-01-30T13:23:30.193Z,3.60
2018-01-30T13:25:57.752Z,3.50
2018-01-30T13:28:25.276Z,2.90
2018-01-30T13:30:52.984Z,4.10
2018-01-30T13:33:20.513Z,4.30
2018-01-30T13:35:48.022Z,4.30
2018-01-30T13:38:15.586Z,3.40
2018-01-30T13:40:43.112Z,3.57
2018-01-30T13:43:10.629Z,5.13
2018-01-30T13:45:38.255Z,3.40
2018-01-30T13:48:05.810Z,3.80
2018-01-30T13:50:33.318Z,3.07
2018-01-30T13:53:00.935Z,3.13
2018-01-30T13:55:28.468Z,2.33
2018-01-30T13:57:56.073Z,3.83
2018-01-30T14:00:23.612Z,2.50
2018-01-30T14:02:51.117Z,2.57
2018-01-30T14:05:18.668Z,3.60
2018-01-30T14:07:46.283Z,3.57
2018-01-30T14:10:13.805Z,4.60
2018-01-30T14:12:41.346Z,3.03
2018-01-30T14:15:08.872Z,3.33
2018-01-30T14:17:36.396Z,2.70
2018-01-30T14:20:03.914Z,2.90
2018-01-30T14:22:31.442Z,4.67
2018-01-30T14:24:58.934Z,2.50
2018-01-30T14:27:26.465Z,3.37
2018-01-30T14:29:54.233Z,4.03
2018-01-30T14:32:21.729Z,3.10
2018-01-30T14:34:49.236Z,3.10
2018-01-30T14:37:16.765Z,3.50
2018-01-30T14:39:44.261Z,2.77
2018-01-30T14:42:11.764Z,3.50
2018-01-30T14:44:39.581Z,2.57
2018-01-30T14:47:07.080Z,2.40
2018-01-30T14:49:34.603Z,3.23
2018-01-30T14:52:02.129Z,3.50
2018-01-30T14:54:29.668Z,3.20
2018-01-30T14:56:57.189Z,2.73
2018-01-30T14:59:24.683Z,2.70
2018-01-30T15:01:52.192Z,2.90
2018-01-30T15:04:19.891Z,2.90
2018-01-30T15:06:47.389Z,2.77
2018-01-30T15:09:15.632Z,4.10
2018-01-30T15:11:43.180Z,3.30
2018-01-30T15:14:10.949Z,4.17
2018-01-30T15:16:38.445Z,3.37
2018-01-30T15:19:05.972Z,3.00
2018-01-30T15:21:33.552Z,3.23
2018-01-30T15:24:01.301Z,3.90
2018-01-30T15:26:28.803Z,3.90
2018-01-30T15:28:56.312Z,2.93
2018-01-30T15:31:23.860Z,3.23
2018-01-30T15:33:51.364Z,2.83
2018-01-30T15:36:18.890Z,3.07
2018-01-30T15:38:46.426Z,2.80
2018-01-30T15:41:13.977Z,2.87
2018-01-30T15:43:41.490Z,3.70
2018-01-30T15:46:09.147Z,3.47
2018-01-30T15:48:36.732Z,3.13
2018-01-30T15:51:04.261Z,3.43
2018-01-30T15:53:31.824Z,3.17
2018-01-30T15:55:59.332Z,3.40
2018-01-30T15:58:26.954Z,4.00
2018-01-30T16:00:54.508Z,3.57
2018-01-30T16:03:22.056Z,4.30
2018-01-30T16:05:49.553Z,5.70
2018-01-30T16:08:17.141Z,3.77
2018-01-30T16:10:44.644Z,2.70
2018-01-30T16:13:12.165Z,4.10
2018-01-30T16:15:39.706Z,3.13
2018-01-30T16:18:07.430Z,3.30
2018-01-30T16:20:34.988Z,4.67
2018-01-30T16:23:02.546Z,6.47
2018-01-30T16:25:30.130Z,3.70
2018-01-30T16:27:57.654Z,4.37
2018-01-30T16:30:25.145Z,5.40
2018-01-30T16:32:52.663Z,4.27
2018-01-30T16:35:20.201Z,4.80
2018-01-30T16:37:47.737Z,4.03
2018-01-30T16:40:15.285Z,5.60
2018-01-30T16:42:42.805Z,4.30
2018-01-30T16:45:10.345Z,5.90
2018-01-30T16:47:37.841Z,3.40
2018-01-30T16:50:05.345Z,4.33
2018-01-30T16:52:32.890Z,4.87
2018-01-30T16:55:00.459Z,4.03
2018-01-30T16:57:27.984Z,4.40
2018-01-30T16:59:55.516Z,4.60
2018-01-30T17:02:23.131Z,4.30
2018-01-30T17:04:50.685Z,5.20
2018-01-30T17:07:18.189Z,18.23
2018-01-30T17:09:45.721Z,5.40
2018-01-30T17:12:13.222Z,4.47
2018-01-30T17:14:40.930Z,4.50
2018-01-30T17:17:08.452Z,4.07
2018-01-30T17:19:36.004Z,4.30
2018-01-30T17:22:03.676Z,5.93
2018-01-30T17:24:31.225Z,4.33
2018-01-30T17:26:58.738Z,4.90
2018-01-30T17:29:26.289Z,4.33
2018-01-30T17:31:53.785Z,6.37
2018-01-30T17:34:21.313Z,4.80
2018-01-30T17:36:48.881Z,4.60
2018-01-30T17:39:16.433Z,4.60
2018-01-30T17:41:43.972Z,5.10
2018-01-30T17:44:11.487Z,3.70
2018-01-30T17:46:39.006Z,6.17
2018-01-30T17:49:06.568Z,4.30
2018-01-30T17:51:34.082Z,4.63
2018-01-30T17:54:01.628Z,4.30
2018-01-30T17:56:29.137Z,4.20
2018-01-30T17:58:56.670Z,5.20
2018-01-30T18:01:24.237Z,6.00
2018-01-30T18:03:51.765Z,5.40
2018-01-30T18:06:19.401Z,4.83
2018-01-30T18:08:46.901Z,5.13
2018-01-30T18:11:14.453Z,5.27
2018-01-30T18:13:42.071Z,4.77
2018-01-30T18:16:09.630Z,6.93
2018-01-30T18:18:37.134Z,9.77
2018-01-30T18:21:04.674Z,6.67
2018-01-30T18:23:32.177Z,4.80
2018-01-30T18:25:59.701Z,5.13
2018-01-30T18:28:27.213Z,5.83
2018-01-30T18:30:54.735Z,6.07
2018-01-30T18:33:22.261Z,7.37
2018-01-30T18:35:49.803Z,5.50
2018-01-30T18:38:17.363Z,7.50
2018-01-30T18:40:44.870Z,5.70
2018-01-30T18:43:12.379Z,4.90
2018-01-30T18:45:39.889Z,8.43
2018-01-30T18:48:07.521Z,5.27
2018-01-30T18:50:35.060Z,6.43
2018-01-30T18:53:03.668Z,7.40
2018-01-30T18:55:31.206Z,6.50
2018-01-30T18:57:58.736Z,5.53
2018-01-30T19:00:26.294Z,6.93
2018-01-30T19:02:53.802Z,9.03
2018-01-30T19:05:21.563Z,6.63
2018-01-30T19:07:49.084Z,6.43
2018-01-30T19:10:16.674Z,6.33
2018-01-30T19:12:44.205Z,8.27
2018-01-30T19:15:11.724Z,5.50
2018-01-30T19:17:39.309Z,5.93
2018-01-30T19:20:06.924Z,7.80
2018-01-30T19:22:34.424Z,6.77
2018-01-30T19:25:01.942Z,10.40
2018-01-30T19:27:29.487Z,5.70
2018-01-30T19:29:57.009Z,4.83
2018-01-30T19:32:24.518Z,9.40
2018-01-30T19:34:52.041Z,9.43
2018-01-30T19:37:19.857Z,5.93
2018-01-30T19:39:47.360Z,6.93
2018-01-30T19:42:14.946Z,6.40
2018-01-30T19:44:42.448Z,11.40
2018-01-30T19:47:10.180Z,6.37
2018-01-30T19:49:37.704Z,6.73
2018-01-30T19:52:05.234Z,6.80
2018-01-30T19:54:32.773Z,5.80
2018-01-30T19:57:00.404Z,10.00
2018-01-30T19:59:27.964Z,7.30
2018-01-30T20:01:55.507Z,7.13
2018-01-30T20:04:23.100Z,12.10
2018-01-30T20:06:50.600Z,12.00
2018-01-30T20:09:18.225Z,7.50
2018-01-30T20:11:45.761Z,8.40
2018-01-30T20:14:13.308Z,8.40
2018-01-30T20:16:40.881Z,9.60
2018-01-30T20:19:08.465Z,8.83
2018-01-30T20:21:35.992Z,12.03
2018-01-30T20:24:03.949Z,9.27
2018-01-30T20:26:37.108Z,7.83
2018-01-30T20:29:04.683Z,14.77
2018-01-30T20:31:32.325Z,7.93
2018-01-30T20:33:59.826Z,13.97
2018-01-30T20:36:27.349Z,10.70
2018-01-30T20:38:55.185Z,16.57
2018-01-30T20:41:22.681Z,7.70
2018-01-30T20:43:50.180Z,7.70
2018-01-30T20:46:17.723Z,5.93
2018-01-30T20:48:45.246Z,7.07
2018-01-30T20:51:12.758Z,9.97
2018-01-30T20:53:40.280Z,6.73
2018-01-30T20:56:07.902Z,7.60
2018-01-30T20:58:35.412Z,6.43
2018-01-30T21:01:02.949Z,8.07
2018-01-30T21:03:30.554Z,6.87
2018-01-30T21:05:58.049Z,7.20
2018-01-30T21:08:25.670Z,13.30
2018-01-30T21:10:53.196Z,13.73
2018-01-30T21:13:20.801Z,10.30
2018-01-30T21:15:48.356Z,8.00
2018-01-30T21:18:15.885Z,10.83
2018-01-30T21:20:43.408Z,7.83
2018-01-30T21:23:10.941Z,8.57
2018-01-30T21:25:38.432Z,6.63
2018-01-30T21:28:06.039Z,9.87
2018-01-30T21:30:33.538Z,7.90
2018-01-30T21:33:01.060Z,9.00
2018-01-30T21:35:28.601Z,8.30
2018-01-30T21:37:56.121Z,9.03
2018-01-30T21:40:23.628Z,15.00
2018-01-30T21:42:51.324Z,15.70
2018-01-30T21:45:18.837Z,10.00
2018-01-30T21:47:46.360Z,6.17
2018-01-30T21:50:13.916Z,13.43
2018-01-30T21:52:41.434Z,6.97
2018-01-30T21:55:08.994Z,9.73
2018-01-30T21:57:36.516Z,12.40
2018-01-30T22:00:04.115Z,10.80
2018-01-30T22:02:31.641Z,6.90
2018-01-30T22:04:59.165Z,6.13
2018-01-30T22:07:26.681Z,6.70
2018-01-30T22:09:54.255Z,5.10
2018-01-30T22:12:21.800Z,7.17
2018-01-30T22:14:49.410Z,9.03
2018-01-30T22:17:17.042Z,8.80
2018-01-30T22:19:44.612Z,8.57
2018-01-30T22:22:12.111Z,7.33
2018-01-30T22:24:39.684Z,11.37
2018-01-30T22:27:07.209Z,5.63
2018-01-30T22:29:34.705Z,11.73
2018-01-30T22:32:02.215Z,6.33
2018-01-30T22:34:29.841Z,8.30
2018-01-30T22:36:57.336Z,12.27
2018-01-30T22:39:24.879Z,9.33
2018-01-30T22:41:52.619Z,8.23
2018-01-30T22:44:29.938Z,6.80
2018-01-30T22:46:47.655Z,6.33
